sensor_id;sensor_type;location;lat;lon;timestamp;P1;durP1;ratioP1;P2;durP2;ratioP2
36827;SDS011;22766;48.042;11.192;2023-01-15T00:01:50;0.35;;;0.35;;
36827;SDS011;22766;48.042;11.192;2023-01-15T00:04:16;1.25;;;0.50;;
36827;SDS011;22766;48.042;11.192;2023-01-15T00:06:43;1.27;;;0.50;;
36827;SDS011;22766;48.042;11.192;2023-01-15T00:09:12;0.63;;;0.30;;
36827;SDS011;22766;48.042;11.192;2023-01-15T00:11:40;0.90;;;0.30;;
36827;SDS011;22766;48.042;11.192;2023-01-15T00:14:07;0.43;;;0.20;;
36827;SDS011;22766;48.042;11.192;2023-01-15T00:16:33;0.22;;;0.20;;
36827;SDS011;22766;48.042;11.192;2023-01-15T00:19:00;0.32;;;0.20;;
36827;SDS011;22766;48.042;11.192;2023-01-15T00:21:29;1.45;;;0.45;;
36827;SDS011;22766;48.042;11.192;2023-01-15T00:23:56;0.40;;;0.40;;
36827;SDS011;22766;48.042;11.192;2023-01-15T00:26:42;1.27;;;0.40;;
36827;SDS011;22766;48.042;11.192;2023-01-15T00:29:27;0.47;;;0.43;;
36827;SDS011;22766;48.042;11.192;2023-01-15T00:31:58;0.82;;;0.22;;
36827;SDS011;22766;48.042;11.192;2023-01-15T00:34:28;0.63;;;0.30;;
36827;SDS011;22766;48.042;11.192;2023-01-15T00:36:56;1.85;;;0.70;;
36827;SDS011;22766;48.042;11.192;2023-01-15T00:39:24;1.23;;;0.50;;
36827;SDS011;22766;48.042;11.192;2023-01-15T00:41:51;0.73;;;0.43;;
36827;SDS011;22766;48.042;11.192;2023-01-15T00:44:18;1.15;;;0.50;;
36827;SDS011;22766;48.042;11.192;2023-01-15T00:46:46;1.00;;;0.40;;
36827;SDS011;22766;48.042;11.192;2023-01-15T00:49:13;0.95;;;0.60;;
36827;SDS011;22766;48.042;11.192;2023-01-15T00:51:40;1.80;;;0.65;;
36827;SDS011;22766;48.042;11.192;2023-01-15T00:54:06;4.25;;;1.08;;
36827;SDS011;22766;48.042;11.192;2023-01-15T00:56:33;4.63;;;1.83;;
36827;SDS011;22766;48.042;11.192;2023-01-15T00:59:00;0.68;;;0.30;;
36827;SDS011;22766;48.042;11.192;2023-01-15T01:01:28;0.90;;;0.40;;
36827;SDS011;22766;48.042;11.192;2023-01-15T01:03:55;1.08;;;0.50;;
36827;SDS011;22766;48.042;11.192;2023-01-15T01:06:22;2.13;;;0.90;;
36827;SDS011;22766;48.042;11.192;2023-01-15T01:08:49;2.83;;;0.55;;
36827;SDS011;22766;48.042;11.192;2023-01-15T01:11:16;1.05;;;0.40;;
36827;SDS011;22766;48.042;11.192;2023-01-15T01:13:45;1.88;;;1.02;;
36827;SDS011;22766;48.042;11.192;2023-01-15T01:16:23;1.25;;;0.65;;
36827;SDS011;22766;48.042;11.192;2023-01-15T01:18:56;4.30;;;1.17;;
36827;SDS011;22766;48.042;11.192;2023-01-15T01:21:24;1.98;;;0.75;;
36827;SDS011;22766;48.042;11.192;2023-01-15T01:23:51;1.15;;;0.32;;
36827;SDS011;22766;48.042;11.192;2023-01-15T01:26:18;1.83;;;0.50;;
36827;SDS011;22766;48.042;11.192;2023-01-15T01:28:48;1.65;;;0.30;;
36827;SDS011;22766;48.042;11.192;2023-01-15T01:33:47;1.48;;;0.70;;
36827;SDS011;22766;48.042;11.192;2023-01-15T01:38:46;1.20;;;0.40;;
36827;SDS011;22766;48.042;11.192;2023-01-15T01:41:16;1.57;;;0.50;;
36827;SDS011;22766;48.042;11.192;2023-01-15T01:46:55;0.82;;;0.40;;
36827;SDS011;22766;48.042;11.192;2023-01-15T01:49:22;1.05;;;0.65;;
36827;SDS011;22766;48.042;11.192;2023-01-15T01:51:51;2.45;;;0.32;;
36827;SDS011;22766;48.042;11.192;2023-01-15T01:54:28;2.88;;;0.50;;
36827;SDS011;22766;48.042;11.192;2023-01-15T01:56:58;0.50;;;0.32;;
36827;SDS011;22766;48.042;11.192;2023-01-15T01:59:25;0.85;;;0.47;;
36827;SDS011;22766;48.042;11.192;2023-01-15T02:01:52;0.80;;;0.40;;
36827;SDS011;22766;48.042;11.192;2023-01-15T02:04:20;1.00;;;0.60;;
36827;SDS011;22766;48.042;11.192;2023-01-15T02:06:48;0.82;;;0.40;;
36827;SDS011;22766;48.042;11.192;2023-01-15T02:09:17;1.10;;;0.30;;
36827;SDS011;22766;48.042;11.192;2023-01-15T02:11:44;2.20;;;0.70;;
36827;SDS011;22766;48.042;11.192;2023-01-15T02:27:51;1.73;;;0.47;;
36827;SDS011;22766;48.042;11.192;2023-01-15T02:30:43;0.68;;;0.40;;
36827;SDS011;22766;48.042;11.192;2023-01-15T02:33:22;0.93;;;0.30;;
36827;SDS011;22766;48.042;11.192;2023-01-15T02:36:03;1.13;;;0.65;;
36827;SDS011;22766;48.042;11.192;2023-01-15T02:38:36;0.98;;;0.40;;
36827;SDS011;22766;48.042;11.192;2023-01-15T02:41:08;0.50;;;0.35;;
36827;SDS011;22766;48.042;11.192;2023-01-15T02:43:44;0.75;;;0.50;;
36827;SDS011;22766;48.042;11.192;2023-01-15T02:46:15;1.58;;;0.60;;
36827;SDS011;22766;48.042;11.192;2023-01-15T02:48:45;0.47;;;0.43;;
36827;SDS011;22766;48.042;11.192;2023-01-15T02:51:16;0.63;;;0.40;;
36827;SDS011;22766;48.042;11.192;2023-01-15T02:53:47;1.08;;;0.60;;
36827;SDS011;22766;48.042;11.192;2023-01-15T02:56:19;1.95;;;0.75;;
36827;SDS011;22766;48.042;11.192;2023-01-15T02:58:51;1.50;;;0.60;;
36827;SDS011;22766;48.042;11.192;2023-01-15T03:01:23;1.27;;;0.43;;
36827;SDS011;22766;48.042;11.192;2023-01-15T03:04:14;1.25;;;0.63;;
36827;SDS011;22766;48.042;11.192;2023-01-15T03:09:31;1.42;;;0.65;;
36827;SDS011;22766;48.042;11.192;2023-01-15T03:14:59;1.45;;;0.63;;
36827;SDS011;22766;48.042;11.192;2023-01-15T03:17:36;2.38;;;0.73;;
36827;SDS011;22766;48.042;11.192;2023-01-15T03:20:11;2.00;;;0.60;;
36827;SDS011;22766;48.042;11.192;2023-01-15T03:22:48;2.15;;;0.70;;
36827;SDS011;22766;48.042;11.192;2023-01-15T03:25:23;1.40;;;0.32;;
36827;SDS011;22766;48.042;11.192;2023-01-15T03:27:55;1.23;;;0.75;;
36827;SDS011;22766;48.042;11.192;2023-01-15T03:30:26;2.33;;;0.70;;
36827;SDS011;22766;48.042;11.192;2023-01-15T03:32:53;1.05;;;0.60;;
36827;SDS011;22766;48.042;11.192;2023-01-15T03:40:52;2.58;;;0.75;;
36827;SDS011;22766;48.042;11.192;2023-01-15T03:43:48;2.08;;;0.40;;
36827;SDS011;22766;48.042;11.192;2023-01-15T03:51:39;3.10;;;0.60;;
36827;SDS011;22766;48.042;11.192;2023-01-15T03:54:41;1.10;;;0.40;;
36827;SDS011;22766;48.042;11.192;2023-01-15T03:57:18;1.05;;;0.45;;
36827;SDS011;22766;48.042;11.192;2023-01-15T04:02:48;0.30;;;0.20;;
36827;SDS011;22766;48.042;11.192;2023-01-15T04:05:18;1.02;;;0.40;;
36827;SDS011;22766;48.042;11.192;2023-01-15T04:07:46;0.95;;;0.50;;
36827;SDS011;22766;48.042;11.192;2023-01-15T04:10:16;0.60;;;0.30;;
36827;SDS011;22766;48.042;11.192;2023-01-15T04:12:44;0.32;;;0.20;;
36827;SDS011;22766;48.042;11.192;2023-01-15T04:15:11;0.50;;;0.30;;
36827;SDS011;22766;48.042;11.192;2023-01-15T04:17:38;0.43;;;0.30;;
36827;SDS011;22766;48.042;11.192;2023-01-15T04:20:05;0.50;;;0.32;;
36827;SDS011;22766;48.042;11.192;2023-01-15T04:22:37;0.43;;;0.40;;
36827;SDS011;22766;48.042;11.192;2023-01-15T04:25:04;0.55;;;0.30;;
36827;SDS011;22766;48.042;11.192;2023-01-15T04:27:31;0.82;;;0.20;;
36827;SDS011;22766;48.042;11.192;2023-01-15T04:29:58;0.55;;;0.25;;
36827;SDS011;22766;48.042;11.192;2023-01-15T04:32:25;2.03;;;0.40;;
36827;SDS011;22766;48.042;11.192;2023-01-15T04:34:52;0.57;;;0.35;;
36827;SDS011;22766;48.042;11.192;2023-01-15T04:37:19;0.40;;;0.30;;
36827;SDS011;22766;48.042;11.192;2023-01-15T04:39:46;0.88;;;0.43;;
36827;SDS011;22766;48.042;11.192;2023-01-15T04:42:13;0.30;;;0.20;;
36827;SDS011;22766;48.042;11.192;2023-01-15T04:44:59;0.98;;;0.40;;
36827;SDS011;22766;48.042;11.192;2023-01-15T04:47:25;0.20;;;0.20;;
36827;SDS011;22766;48.042;11.192;2023-01-15T04:49:55;0.40;;;0.40;;
36827;SDS011;22766;48.042;11.192;2023-01-15T04:52:22;0.60;;;0.20;;
36827;SDS011;22766;48.042;11.192;2023-01-15T04:54:48;1.38;;;0.50;;
36827;SDS011;22766;48.042;11.192;2023-01-15T04:57:15;1.20;;;0.40;;
36827;SDS011;22766;48.042;11.192;2023-01-15T04:59:41;1.52;;;0.40;;
36827;SDS011;22766;48.042;11.192;2023-01-15T05:02:08;2.53;;;0.60;;
36827;SDS011;22766;48.042;11.192;2023-01-15T05:04:35;0.70;;;0.30;;
36827;SDS011;22766;48.042;11.192;2023-01-15T05:07:02;0.63;;;0.50;;
36827;SDS011;22766;48.042;11.192;2023-01-15T05:09:30;0.77;;;0.40;;
36827;SDS011;22766;48.042;11.192;2023-01-15T05:11:57;0.43;;;0.43;;
36827;SDS011;22766;48.042;11.192;2023-01-15T05:14:24;0.45;;;0.20;;
36827;SDS011;22766;48.042;11.192;2023-01-15T05:16:50;0.75;;;0.20;;
36827;SDS011;22766;48.042;11.192;2023-01-15T05:19:17;0.50;;;0.20;;
36827;SDS011;22766;48.042;11.192;2023-01-15T05:21:44;0.90;;;0.20;;
36827;SDS011;22766;48.042;11.192;2023-01-15T05:24:14;1.40;;;0.20;;
36827;SDS011;22766;48.042;11.192;2023-01-15T05:26:42;0.50;;;0.15;;
36827;SDS011;22766;48.042;11.192;2023-01-15T05:29:10;0.10;;;0.10;;
36827;SDS011;22766;48.042;11.192;2023-01-15T05:31:39;0.15;;;0.15;;
36827;SDS011;22766;48.042;11.192;2023-01-15T05:34:07;0.77;;;0.10;;
36827;SDS011;22766;48.042;11.192;2023-01-15T05:36:35;0.82;;;0.08;;
36827;SDS011;22766;48.042;11.192;2023-01-15T05:39:02;0.10;;;0.00;;
36827;SDS011;22766;48.042;11.192;2023-01-15T05:41:30;0.80;;;0.13;;
36827;SDS011;22766;48.042;11.192;2023-01-15T05:44:22;1.45;;;0.10;;
36827;SDS011;22766;48.042;11.192;2023-01-15T05:46:56;0.00;;;0.00;;
36827;SDS011;22766;48.042;11.192;2023-01-15T05:49:26;0.00;;;0.00;;
36827;SDS011;22766;48.042;11.192;2023-01-15T05:51:55;0.00;;;0.00;;
36827;SDS011;22766;48.042;11.192;2023-01-15T05:54:23;0.70;;;0.10;;
36827;SDS011;22766;48.042;11.192;2023-01-15T05:56:52;0.13;;;0.03;;
36827;SDS011;22766;48.042;11.192;2023-01-15T05:59:20;0.00;;;0.00;;
36827;SDS011;22766;48.042;11.192;2023-01-15T06:01:49;0.52;;;0.00;;
36827;SDS011;22766;48.042;11.192;2023-01-15T06:04:17;0.10;;;0.05;;
36827;SDS011;22766;48.042;11.192;2023-01-15T06:06:47;1.35;;;0.30;;
36827;SDS011;22766;48.042;11.192;2023-01-15T06:09:14;0.10;;;0.00;;
36827;SDS011;22766;48.042;11.192;2023-01-15T06:11:41;0.10;;;0.00;;
36827;SDS011;22766;48.042;11.192;2023-01-15T06:14:09;0.00;;;0.00;;
36827;SDS011;22766;48.042;11.192;2023-01-15T06:16:37;0.05;;;0.00;;
36827;SDS011;22766;48.042;11.192;2023-01-15T06:19:07;0.00;;;0.00;;
36827;SDS011;22766;48.042;11.192;2023-01-15T06:21:34;0.00;;;0.00;;
36827;SDS011;22766;48.042;11.192;2023-01-15T06:24:02;0.00;;;0.00;;
36827;SDS011;22766;48.042;11.192;2023-01-15T06:26:29;1.50;;;0.05;;
36827;SDS011;22766;48.042;11.192;2023-01-15T06:28:56;0.10;;;0.00;;
36827;SDS011;22766;48.042;11.192;2023-01-15T06:31:23;0.10;;;0.00;;
36827;SDS011;22766;48.042;11.192;2023-01-15T06:33:52;0.00;;;0.00;;
36827;SDS011;22766;48.042;11.192;2023-01-15T06:36:20;0.00;;;0.00;;
36827;SDS011;22766;48.042;11.192;2023-01-15T06:38:48;0.00;;;0.00;;
36827;SDS011;22766;48.042;11.192;2023-01-15T06:41:16;1.20;;;0.10;;
36827;SDS011;22766;48.042;11.192;2023-01-15T06:44:03;0.30;;;0.00;;
36827;SDS011;22766;48.042;11.192;2023-01-15T06:46:49;0.70;;;0.10;;
36827;SDS011;22766;48.042;11.192;2023-01-15T06:49:35;0.10;;;0.00;;
36827;SDS011;22766;48.042;11.192;2023-01-15T06:52:03;0.00;;;0.00;;
36827;SDS011;22766;48.042;11.192;2023-01-15T06:54:31;0.03;;;0.00;;
36827;SDS011;22766;48.042;11.192;2023-01-15T06:56:58;0.05;;;0.00;;
36827;SDS011;22766;48.042;11.192;2023-01-15T06:59:24;0.00;;;0.00;;
36827;SDS011;22766;48.042;11.192;2023-01-15T07:01:51;0.00;;;0.00;;
36827;SDS011;22766;48.042;11.192;2023-01-15T07:04:18;0.28;;;0.00;;
36827;SDS011;22766;48.042;11.192;2023-01-15T07:06:45;0.00;;;0.00;;
36827;SDS011;22766;48.042;11.192;2023-01-15T07:09:11;0.22;;;0.10;;
36827;SDS011;22766;48.042;11.192;2023-01-15T07:11:39;0.10;;;0.10;;
36827;SDS011;22766;48.042;11.192;2023-01-15T07:14:15;0.10;;;0.00;;
36827;SDS011;22766;48.042;11.192;2023-01-15T07:16:43;0.00;;;0.00;;
36827;SDS011;22766;48.042;11.192;2023-01-15T07:19:10;0.00;;;0.00;;
36827;SDS011;22766;48.042;11.192;2023-01-15T07:21:37;0.00;;;0.00;;
36827;SDS011;22766;48.042;11.192;2023-01-15T07:24:04;0.88;;;0.15;;
36827;SDS011;22766;48.042;11.192;2023-01-15T07:26:31;0.57;;;0.10;;
36827;SDS011;22766;48.042;11.192;2023-01-15T07:28:58;0.28;;;0.00;;
36827;SDS011;22766;48.042;11.192;2023-01-15T07:31:25;0.00;;;0.00;;
36827;SDS011;22766;48.042;11.192;2023-01-15T07:33:51;1.27;;;0.10;;
36827;SDS011;22766;48.042;11.192;2023-01-15T07:36:18;0.00;;;0.00;;
36827;SDS011;22766;48.042;11.192;2023-01-15T07:38:44;0.22;;;0.10;;
36827;SDS011;22766;48.042;11.192;2023-01-15T07:41:11;0.08;;;0.00;;
36827;SDS011;22766;48.042;11.192;2023-01-15T07:43:56;0.05;;;0.05;;
36827;SDS011;22766;48.042;11.192;2023-01-15T07:46:41;0.00;;;0.00;;
36827;SDS011;22766;48.042;11.192;2023-01-15T07:49:27;0.00;;;0.00;;
36827;SDS011;22766;48.042;11.192;2023-01-15T07:52:12;0.08;;;0.00;;
36827;SDS011;22766;48.042;11.192;2023-01-15T07:54:42;0.10;;;0.00;;
36827;SDS011;22766;48.042;11.192;2023-01-15T07:57:13;0.00;;;0.00;;
36827;SDS011;22766;48.042;11.192;2023-01-15T07:59:43;0.10;;;0.10;;
36827;SDS011;22766;48.042;11.192;2023-01-15T08:02:09;0.40;;;0.10;;
36827;SDS011;22766;48.042;11.192;2023-01-15T08:04:37;0.10;;;0.10;;
36827;SDS011;22766;48.042;11.192;2023-01-15T08:07:04;0.30;;;0.10;;
36827;SDS011;22766;48.042;11.192;2023-01-15T08:09:31;0.10;;;0.10;;
36827;SDS011;22766;48.042;11.192;2023-01-15T08:11:58;0.95;;;0.10;;
36827;SDS011;22766;48.042;11.192;2023-01-15T08:14:45;0.13;;;0.10;;
36827;SDS011;22766;48.042;11.192;2023-01-15T08:17:34;0.30;;;0.00;;
36827;SDS011;22766;48.042;11.192;2023-01-15T08:20:04;0.00;;;0.00;;
36827;SDS011;22766;48.042;11.192;2023-01-15T08:22:35;0.00;;;0.00;;
36827;SDS011;22766;48.042;11.192;2023-01-15T08:25:03;0.22;;;0.10;;
36827;SDS011;22766;48.042;11.192;2023-01-15T08:27:31;0.50;;;0.20;;
36827;SDS011;22766;48.042;11.192;2023-01-15T08:29:58;0.30;;;0.10;;
36827;SDS011;22766;48.042;11.192;2023-01-15T08:32:25;0.55;;;0.10;;
36827;SDS011;22766;48.042;11.192;2023-01-15T08:34:56;0.17;;;0.10;;
36827;SDS011;22766;48.042;11.192;2023-01-15T08:37:22;0.00;;;0.00;;
36827;SDS011;22766;48.042;11.192;2023-01-15T08:39:50;0.10;;;0.10;;
36827;SDS011;22766;48.042;11.192;2023-01-15T08:42:19;0.40;;;0.28;;
36827;SDS011;22766;48.042;11.192;2023-01-15T08:44:46;0.77;;;0.20;;
36827;SDS011;22766;48.042;11.192;2023-01-15T08:47:13;0.20;;;0.00;;
36827;SDS011;22766;48.042;11.192;2023-01-15T08:49:41;0.20;;;0.00;;
36827;SDS011;22766;48.042;11.192;2023-01-15T08:52:07;0.22;;;0.00;;
36827;SDS011;22766;48.042;11.192;2023-01-15T08:54:34;0.28;;;0.00;;
36827;SDS011;22766;48.042;11.192;2023-01-15T08:57:01;0.10;;;0.08;;
36827;SDS011;22766;48.042;11.192;2023-01-15T08:59:27;0.10;;;0.05;;
36827;SDS011;22766;48.042;11.192;2023-01-15T09:01:54;0.45;;;0.10;;
36827;SDS011;22766;48.042;11.192;2023-01-15T09:04:21;0.00;;;0.00;;
36827;SDS011;22766;48.042;11.192;2023-01-15T09:06:48;0.00;;;0.00;;
36827;SDS011;22766;48.042;11.192;2023-01-15T09:09:15;0.25;;;0.10;;
36827;SDS011;22766;48.042;11.192;2023-01-15T09:11:44;0.10;;;0.10;;
36827;SDS011;22766;48.042;11.192;2023-01-15T09:14:12;0.30;;;0.20;;
36827;SDS011;22766;48.042;11.192;2023-01-15T09:16:59;0.22;;;0.00;;
36827;SDS011;22766;48.042;11.192;2023-01-15T09:19:26;0.10;;;0.10;;
36827;SDS011;22766;48.042;11.192;2023-01-15T09:21:53;0.00;;;0.00;;
36827;SDS011;22766;48.042;11.192;2023-01-15T09:24:19;0.10;;;0.10;;
36827;SDS011;22766;48.042;11.192;2023-01-15T09:26:46;0.10;;;0.10;;
36827;SDS011;22766;48.042;11.192;2023-01-15T09:29:12;0.20;;;0.10;;
36827;SDS011;22766;48.042;11.192;2023-01-15T09:31:39;0.10;;;0.10;;
36827;SDS011;22766;48.042;11.192;2023-01-15T09:34:06;1.85;;;0.10;;
36827;SDS011;22766;48.042;11.192;2023-01-15T09:36:33;0.20;;;0.15;;
36827;SDS011;22766;48.042;11.192;2023-01-15T09:39:01;0.00;;;0.00;;
36827;SDS011;22766;48.042;11.192;2023-01-15T09:41:33;0.10;;;0.10;;
36827;SDS011;22766;48.042;11.192;2023-01-15T09:47:18;0.00;;;0.00;;
36827;SDS011;22766;48.042;11.192;2023-01-15T09:49:59;0.32;;;0.20;;
36827;SDS011;22766;48.042;11.192;2023-01-15T09:57:48;0.00;;;0.00;;
36827;SDS011;22766;48.042;11.192;2023-01-15T10:00:18;0.55;;;0.22;;
36827;SDS011;22766;48.042;11.192;2023-01-15T10:02:50;0.38;;;0.08;;
36827;SDS011;22766;48.042;11.192;2023-01-15T10:05:26;0.15;;;0.05;;
36827;SDS011;22766;48.042;11.192;2023-01-15T10:08:00;0.30;;;0.10;;
36827;SDS011;22766;48.042;11.192;2023-01-15T10:10:38;0.10;;;0.10;;
36827;SDS011;22766;48.042;11.192;2023-01-15T10:13:17;0.65;;;0.10;;
36827;SDS011;22766;48.042;11.192;2023-01-15T10:15:52;0.10;;;0.10;;
36827;SDS011;22766;48.042;11.192;2023-01-15T10:18:23;0.08;;;0.08;;
36827;SDS011;22766;48.042;11.192;2023-01-15T10:28:52;0.10;;;0.10;;
36827;SDS011;22766;48.042;11.192;2023-01-15T10:31:29;0.10;;;0.10;;
36827;SDS011;22766;48.042;11.192;2023-01-15T10:37:05;2.42;;;0.10;;
36827;SDS011;22766;48.042;11.192;2023-01-15T10:46:02;0.22;;;0.10;;
36827;SDS011;22766;48.042;11.192;2023-01-15T10:48:43;0.10;;;0.10;;
36827;SDS011;22766;48.042;11.192;2023-01-15T10:51:22;0.03;;;0.03;;
36827;SDS011;22766;48.042;11.192;2023-01-15T10:56:27;0.10;;;0.10;;
36827;SDS011;22766;48.042;11.192;2023-01-15T11:01:48;0.10;;;0.10;;
36827;SDS011;22766;48.042;11.192;2023-01-15T11:04:19;0.10;;;0.10;;
36827;SDS011;22766;48.042;11.192;2023-01-15T11:06:46;0.10;;;0.10;;
36827;SDS011;22766;48.042;11.192;2023-01-15T11:09:20;0.10;;;0.10;;
36827;SDS011;22766;48.042;11.192;2023-01-15T11:12:02;0.10;;;0.10;;
36827;SDS011;22766;48.042;11.192;2023-01-15T11:14:45;0.13;;;0.13;;
36827;SDS011;22766;48.042;11.192;2023-01-15T11:17:51;0.10;;;0.10;;
36827;SDS011;22766;48.042;11.192;2023-01-15T11:20:43;0.20;;;0.20;;
36827;SDS011;22766;48.042;11.192;2023-01-15T11:23:12;0.10;;;0.10;;
36827;SDS011;22766;48.042;11.192;2023-01-15T11:26:15;0.10;;;0.10;;
36827;SDS011;22766;48.042;11.192;2023-01-15T11:28:36;0.10;;;0.10;;
36827;SDS011;22766;48.042;11.192;2023-01-15T11:31:09;0.13;;;0.13;;
36827;SDS011;22766;48.042;11.192;2023-01-15T11:33:37;0.10;;;0.10;;
36827;SDS011;22766;48.042;11.192;2023-01-15T11:36:05;0.30;;;0.20;;
36827;SDS011;22766;48.042;11.192;2023-01-15T11:38:44;0.10;;;0.10;;
36827;SDS011;22766;48.042;11.192;2023-01-15T11:41:18;0.10;;;0.10;;
36827;SDS011;22766;48.042;11.192;2023-01-15T11:43:57;0.10;;;0.10;;
36827;SDS011;22766;48.042;11.192;2023-01-15T11:46:45;0.10;;;0.10;;
36827;SDS011;22766;48.042;11.192;2023-01-15T11:49:31;0.15;;;0.15;;
36827;SDS011;22766;48.042;11.192;2023-01-15T11:52:19;0.10;;;0.10;;
36827;SDS011;22766;48.042;11.192;2023-01-15T11:54:50;0.10;;;0.10;;
36827;SDS011;22766;48.042;11.192;2023-01-15T11:57:27;0.20;;;0.20;;
36827;SDS011;22766;48.042;11.192;2023-01-15T11:59:57;0.55;;;0.10;;
36827;SDS011;22766;48.042;11.192;2023-01-15T12:07:40;0.20;;;0.20;;
36827;SDS011;22766;48.042;11.192;2023-01-15T12:18:16;0.10;;;0.10;;
36827;SDS011;22766;48.042;11.192;2023-01-15T12:26:33;0.20;;;0.20;;
36827;SDS011;22766;48.042;11.192;2023-01-15T12:29:25;0.28;;;0.10;;
36827;SDS011;22766;48.042;11.192;2023-01-15T12:31:57;0.20;;;0.20;;
36827;SDS011;22766;48.042;11.192;2023-01-15T12:34:31;0.32;;;0.30;;
36827;SDS011;22766;48.042;11.192;2023-01-15T12:40:39;1.08;;;0.40;;
36827;SDS011;22766;48.042;11.192;2023-01-15T12:42:54;0.65;;;0.20;;
36827;SDS011;22766;48.042;11.192;2023-01-15T12:45:45;0.57;;;0.30;;
36827;SDS011;22766;48.042;11.192;2023-01-15T12:50:55;0.35;;;0.20;;
36827;SDS011;22766;48.042;11.192;2023-01-15T12:53:45;1.85;;;0.32;;
36827;SDS011;22766;48.042;11.192;2023-01-15T13:04:54;0.20;;;0.20;;
36827;SDS011;22766;48.042;11.192;2023-01-15T13:07:36;0.20;;;0.20;;
36827;SDS011;22766;48.042;11.192;2023-01-15T13:10:17;0.20;;;0.20;;
36827;SDS011;22766;48.042;11.192;2023-01-15T13:12:47;0.10;;;0.10;;
36827;SDS011;22766;48.042;11.192;2023-01-15T13:15:15;0.10;;;0.10;;
36827;SDS011;22766;48.042;11.192;2023-01-15T13:34:14;0.20;;;0.20;;
36827;SDS011;22766;48.042;11.192;2023-01-15T13:36:52;1.80;;;0.55;;
36827;SDS011;22766;48.042;11.192;2023-01-15T13:39:24;1.77;;;1.30;;
36827;SDS011;22766;48.042;11.192;2023-01-15T13:41:59;0.82;;;0.50;;
36827;SDS011;22766;48.042;11.192;2023-01-15T13:44:58;3.20;;;1.85;;
36827;SDS011;22766;48.042;11.192;2023-01-15T13:47:46;1.35;;;1.02;;
36827;SDS011;22766;48.042;11.192;2023-01-15T13:50:30;5.07;;;2.88;;
36827;SDS011;22766;48.042;11.192;2023-01-15T13:53:19;0.30;;;0.30;;
36827;SDS011;22766;48.042;11.192;2023-01-15T13:56:09;0.47;;;0.40;;
36827;SDS011;22766;48.042;11.192;2023-01-15T13:58:56;0.30;;;0.30;;
36827;SDS011;22766;48.042;11.192;2023-01-15T14:06:40;0.55;;;0.50;;
36827;SDS011;22766;48.042;11.192;2023-01-15T14:09:09;0.40;;;0.30;;
36827;SDS011;22766;48.042;11.192;2023-01-15T14:22:49;0.82;;;0.52;;
36827;SDS011;22766;48.042;11.192;2023-01-15T14:25:39;0.20;;;0.20;;
36827;SDS011;22766;48.042;11.192;2023-01-15T14:36:28;1.33;;;0.60;;
36827;SDS011;22766;48.042;11.192;2023-01-15T14:38:58;0.47;;;0.47;;
36827;SDS011;22766;48.042;11.192;2023-01-15T14:41:32;0.65;;;0.40;;
36827;SDS011;22766;48.042;11.192;2023-01-15T14:44:31;0.30;;;0.30;;
36827;SDS011;22766;48.042;11.192;2023-01-15T14:47:00;0.32;;;0.30;;
36827;SDS011;22766;48.042;11.192;2023-01-15T14:49:30;0.30;;;0.30;;
36827;SDS011;22766;48.042;11.192;2023-01-15T14:52:08;0.30;;;0.30;;
36827;SDS011;22766;48.042;11.192;2023-01-15T14:54:36;1.17;;;0.40;;
36827;SDS011;22766;48.042;11.192;2023-01-15T14:57:05;0.20;;;0.20;;
36827;SDS011;22766;48.042;11.192;2023-01-15T15:02:04;0.98;;;0.55;;
36827;SDS011;22766;48.042;11.192;2023-01-15T15:04:42;0.43;;;0.43;;
36827;SDS011;22766;48.042;11.192;2023-01-15T15:07:20;1.13;;;0.70;;
36827;SDS011;22766;48.042;11.192;2023-01-15T15:18:46;0.75;;;0.73;;
36827;SDS011;22766;48.042;11.192;2023-01-15T15:21:24;0.40;;;0.40;;
36827;SDS011;22766;48.042;11.192;2023-01-15T15:26:32;0.20;;;0.20;;
36827;SDS011;22766;48.042;11.192;2023-01-15T15:29:01;0.52;;;0.32;;
36827;SDS011;22766;48.042;11.192;2023-01-15T15:31:31;2.80;;;0.68;;
36827;SDS011;22766;48.042;11.192;2023-01-15T15:34:03;1.55;;;0.43;;
36827;SDS011;22766;48.042;11.192;2023-01-15T15:36:32;1.98;;;0.50;;
36827;SDS011;22766;48.042;11.192;2023-01-15T15:39:25;0.60;;;0.50;;
36827;SDS011;22766;48.042;11.192;2023-01-15T15:41:53;1.08;;;0.40;;
36827;SDS011;22766;48.042;11.192;2023-01-15T15:44:54;0.85;;;0.70;;
36827;SDS011;22766;48.042;11.192;2023-01-15T15:47:42;0.33;;;0.33;;
36827;SDS011;22766;48.042;11.192;2023-01-15T15:50:31;0.35;;;0.30;;
36827;SDS011;22766;48.042;11.192;2023-01-15T15:53:00;0.32;;;0.32;;
36827;SDS011;22766;48.042;11.192;2023-01-15T15:55:36;0.40;;;0.25;;
36827;SDS011;22766;48.042;11.192;2023-01-15T15:58:07;0.47;;;0.30;;
36827;SDS011;22766;48.042;11.192;2023-01-15T16:00:42;0.20;;;0.20;;
36827;SDS011;22766;48.042;11.192;2023-01-15T16:03:18;0.22;;;0.20;;
36827;SDS011;22766;48.042;11.192;2023-01-15T16:06:05;0.20;;;0.20;;
36827;SDS011;22766;48.042;11.192;2023-01-15T16:08:34;0.20;;;0.20;;
36827;SDS011;22766;48.042;11.192;2023-01-15T16:11:10;0.20;;;0.20;;
36827;SDS011;22766;48.042;11.192;2023-01-15T16:13:39;0.20;;;0.20;;
36827;SDS011;22766;48.042;11.192;2023-01-15T16:16:08;0.60;;;0.40;;
36827;SDS011;22766;48.042;11.192;2023-01-15T16:18:37;3.30;;;0.60;;
36827;SDS011;22766;48.042;11.192;2023-01-15T16:21:07;0.50;;;0.47;;
36827;SDS011;22766;48.042;11.192;2023-01-15T16:23:35;0.45;;;0.38;;
36827;SDS011;22766;48.042;11.192;2023-01-15T16:28:40;0.30;;;0.30;;
36827;SDS011;22766;48.042;11.192;2023-01-15T16:31:10;0.30;;;0.30;;
36827;SDS011;22766;48.042;11.192;2023-01-15T16:33:40;1.75;;;0.30;;
36827;SDS011;22766;48.042;11.192;2023-01-15T16:36:06;0.45;;;0.30;;
36827;SDS011;22766;48.042;11.192;2023-01-15T16:38:35;0.47;;;0.40;;
36827;SDS011;22766;48.042;11.192;2023-01-15T16:41:05;0.38;;;0.30;;
36827;SDS011;22766;48.042;11.192;2023-01-15T16:43:32;0.22;;;0.22;;
36827;SDS011;22766;48.042;11.192;2023-01-15T16:46:16;1.90;;;0.93;;
36827;SDS011;22766;48.042;11.192;2023-01-15T16:48:45;1.05;;;0.85;;
36827;SDS011;22766;48.042;11.192;2023-01-15T16:51:47;0.30;;;0.30;;
36827;SDS011;22766;48.042;11.192;2023-01-15T16:56:57;1.08;;;0.40;;
36827;SDS011;22766;48.042;11.192;2023-01-15T17:01:52;0.55;;;0.30;;
36827;SDS011;22766;48.042;11.192;2023-01-15T17:04:37;0.57;;;0.40;;
36827;SDS011;22766;48.042;11.192;2023-01-15T17:07:17;4.88;;;0.60;;
36827;SDS011;22766;48.042;11.192;2023-01-15T17:14:57;0.82;;;0.60;;
36827;SDS011;22766;48.042;11.192;2023-01-15T17:17:50;0.88;;;0.65;;
36827;SDS011;22766;48.042;11.192;2023-01-15T17:20:18;0.75;;;0.70;;
36827;SDS011;22766;48.042;11.192;2023-01-15T17:22:47;3.30;;;0.68;;
36827;SDS011;22766;48.042;11.192;2023-01-15T17:25:25;0.88;;;0.60;;
36827;SDS011;22766;48.042;11.192;2023-01-15T17:27:56;2.13;;;1.20;;
36827;SDS011;22766;48.042;11.192;2023-01-15T17:30:25;5.45;;;1.20;;
36827;SDS011;22766;48.042;11.192;2023-01-15T17:33:00;8.32;;;3.67;;
36827;SDS011;22766;48.042;11.192;2023-01-15T17:35:28;4.30;;;1.98;;
36827;SDS011;22766;48.042;11.192;2023-01-15T17:37:57;3.83;;;1.88;;
36827;SDS011;22766;48.042;11.192;2023-01-15T17:40:24;5.45;;;2.72;;
36827;SDS011;22766;48.042;11.192;2023-01-15T17:42:50;7.32;;;3.00;;
36827;SDS011;22766;48.042;11.192;2023-01-15T17:45:22;1.58;;;0.88;;
36827;SDS011;22766;48.042;11.192;2023-01-15T17:47:51;0.60;;;0.52;;
36827;SDS011;22766;48.042;11.192;2023-01-15T17:50:17;2.17;;;1.27;;
36827;SDS011;22766;48.042;11.192;2023-01-15T17:52:44;0.98;;;0.77;;
36827;SDS011;22766;48.042;11.192;2023-01-15T17:55:12;0.52;;;0.52;;
36827;SDS011;22766;48.042;11.192;2023-01-15T17:57:59;2.08;;;0.38;;